Terminal Aerodrome Forecast
Issued by NWS

Home | Current Version | Previous Version | Graphics & Text | Print | Product List | Glossary On
Versions: 1 2 3 4 5 6 7 8 9 10 11 12 13 14
767
FTUS43 KMPX 011738
TAFRWF
TAF
KRWF 011738Z 0118/0218 31010KT P6SM OVC012
     FM020500 32006KT P6SM BKN025 BKN040
     FM021200 32005KT P6SM OVC015=

USA.gov is the U.S. government's official web portal to all federal, state and local government web resources and services.